createdAt,value
2023-02-13T00:02:30.032Z,19.17
2023-02-13T00:05:34.700Z,21.45
2023-02-13T00:08:39.810Z,26.08
2023-02-13T00:11:44.300Z,19.35
2023-02-13T00:14:48.894Z,28.77
2023-02-13T00:17:53.683Z,20.85
2023-02-13T00:21:05.507Z,22.85
2023-02-13T00:24:10.601Z,29.98
2023-02-13T00:27:15.776Z,23.45
2023-02-13T00:30:22.158Z,17.50
2023-02-13T00:33:27.346Z,21.60
2023-02-13T00:36:32.428Z,23.98
2023-02-13T00:39:37.232Z,19.63
2023-02-13T00:42:42.003Z,28.85
2023-02-13T00:45:46.965Z,22.45
2023-02-13T00:48:51.829Z,23.27
2023-02-13T00:51:56.993Z,25.50
2023-02-13T00:55:02.174Z,24.92
2023-02-13T00:58:07.106Z,22.27
2023-02-13T01:01:11.845Z,22.15
2023-02-13T01:04:16.557Z,28.83
2023-02-13T01:07:21.259Z,26.75
2023-02-13T01:10:26.740Z,21.85
2023-02-13T01:13:31.923Z,22.42
2023-02-13T01:16:36.918Z,23.55
2023-02-13T01:19:41.820Z,21.73
2023-02-13T01:22:46.689Z,23.85
2023-02-13T01:25:51.723Z,20.35
2023-02-13T01:28:58.034Z,20.27
2023-02-13T01:32:05.072Z,29.58
2023-02-13T01:35:12.235Z,25.77
2023-02-13T01:38:17.437Z,21.67
2023-02-13T01:41:24.247Z,22.90
2023-02-13T01:44:52.058Z,21.23
2023-02-13T01:48:05.784Z,20.90
2023-02-13T01:51:19.741Z,25.92
2023-02-13T01:54:32.723Z,23.63
2023-02-13T01:57:40.566Z,23.33
2023-02-13T02:00:49.762Z,24.45
2023-02-13T02:04:06.098Z,24.10
2023-02-13T02:07:19.436Z,26.35
2023-02-13T02:10:26.473Z,28.67
2023-02-13T02:13:31.240Z,24.02
2023-02-13T02:16:41.444Z,23.70
2023-02-13T02:19:58.244Z,25.60
2023-02-13T02:23:46.456Z,21.42
2023-02-13T02:27:24.890Z,22.67
2023-02-13T02:30:51.007Z,24.95
2023-02-13T02:34:24.952Z,25.13
2023-02-13T02:38:02.806Z,21.33
2023-02-13T02:41:55.013Z,20.05
2023-02-13T02:45:25.815Z,21.90
2023-02-13T02:48:58.950Z,19.63
2023-02-13T02:52:08.983Z,24.00
2023-02-13T02:55:28.616Z,27.63
2023-02-13T02:59:19.588Z,21.00
2023-02-13T03:02:43.425Z,17.98
2023-02-13T03:06:07.885Z,22.23
2023-02-13T03:09:37.660Z,20.45
2023-02-13T03:13:16.814Z,23.23
2023-02-13T03:16:42.750Z,22.10
2023-02-13T03:20:40.825Z,19.25
2023-02-13T03:23:54.759Z,26.35
2023-02-13T03:27:15.399Z,18.30
2023-02-13T03:30:55.138Z,28.17
2023-02-13T03:34:09.562Z,25.83
2023-02-13T03:37:34.851Z,27.15
2023-02-13T03:41:10.534Z,15.70
2023-02-13T03:44:40.860Z,19.58
2023-02-13T03:47:47.269Z,19.13
2023-02-13T03:50:52.112Z,18.02
2023-02-13T03:54:01.980Z,15.85
2023-02-13T03:57:25.781Z,22.38
2023-02-13T04:00:38.572Z,17.25
2023-02-13T04:04:11.628Z,21.23
2023-02-13T04:07:32.047Z,20.48
2023-02-13T04:10:53.357Z,21.20
2023-02-13T04:14:11.296Z,22.95
2023-02-13T04:17:51.753Z,19.58
2023-02-13T04:20:56.856Z,19.60
2023-02-13T04:24:02.279Z,23.67
2023-02-13T04:27:07.329Z,28.20
2023-02-13T04:30:13.248Z,21.13
2023-02-13T04:33:18.175Z,20.17
2023-02-13T04:36:23.376Z,21.67
2023-02-13T04:39:28.442Z,20.95
2023-02-13T04:42:33.029Z,21.80
2023-02-13T04:45:37.839Z,20.30
2023-02-13T04:48:42.522Z,29.50
2023-02-13T04:51:47.244Z,29.50
2023-02-13T04:54:52.471Z,26.48
2023-02-13T04:57:57.516Z,30.38
2023-02-13T05:01:02.786Z,30.52
2023-02-13T05:04:08.444Z,29.40
2023-02-13T05:07:13.788Z,25.38
2023-02-13T05:10:29.625Z,29.42
2023-02-13T05:13:34.703Z,32.70
2023-02-13T05:16:39.786Z,30.83
2023-02-13T05:19:44.525Z,55.97
2023-02-13T05:23:10.937Z,25.98
2023-02-13T05:26:15.576Z,32.47
2023-02-13T05:29:20.554Z,29.83
2023-02-13T05:32:25.745Z,32.13
2023-02-13T05:35:30.635Z,31.98
2023-02-13T05:38:35.656Z,28.23
2023-02-13T05:41:40.445Z,31.50
2023-02-13T05:44:45.136Z,27.10
2023-02-13T05:47:50.274Z,28.88
2023-02-13T05:50:56.050Z,65.15
2023-02-13T05:54:01.574Z,24.55
2023-02-13T05:57:19.623Z,25.75
2023-02-13T06:00:24.985Z,21.23
2023-02-13T06:03:32.055Z,23.88
2023-02-13T06:06:37.027Z,22.63
2023-02-13T06:09:42.325Z,17.52
2023-02-13T06:12:47.043Z,15.35
2023-02-13T06:15:52.862Z,11.70
2023-02-13T06:18:58.225Z,10.30
2023-02-13T06:22:02.840Z,11.40
2023-02-13T06:25:07.877Z,12.55
2023-02-13T06:28:12.720Z,15.32
2023-02-13T06:31:17.763Z,22.27
2023-02-13T06:34:22.628Z,14.80
2023-02-13T06:37:27.687Z,15.88
2023-02-13T06:40:32.722Z,13.93
2023-02-13T06:43:39.180Z,25.50
2023-02-13T06:46:44.604Z,20.20
2023-02-13T06:49:49.616Z,17.58
2023-02-13T06:52:54.451Z,15.93
2023-02-13T06:55:59.370Z,11.15
2023-02-13T06:59:04.498Z,53.42
2023-02-13T07:02:13.062Z,38.83
2023-02-13T07:05:18.084Z,11.27
2023-02-13T07:08:23.428Z,21.65
2023-02-13T07:11:28.567Z,52.28
2023-02-13T07:14:33.453Z,14.38
2023-02-13T07:17:38.503Z,14.57
2023-02-13T07:20:43.602Z,11.85
2023-02-13T07:23:48.682Z,15.65
2023-02-13T07:26:53.496Z,11.55
2023-02-13T07:29:58.387Z,14.70
2023-02-13T07:33:04.931Z,9.48
2023-02-13T07:36:09.558Z,10.13
2023-02-13T07:39:14.923Z,8.63
2023-02-13T07:42:19.825Z,8.23
2023-02-13T07:45:24.810Z,7.90
2023-02-13T07:48:29.806Z,9.38
2023-02-13T07:51:34.429Z,9.38
2023-02-13T07:54:47.163Z,8.68
2023-02-13T07:57:52.316Z,17.05
2023-02-13T08:00:57.425Z,8.80
2023-02-13T08:04:02.518Z,7.90
2023-02-13T08:07:07.798Z,10.52
2023-02-13T08:10:32.648Z,15.82
2023-02-13T08:13:37.834Z,8.15
2023-02-13T08:16:43.001Z,12.10
2023-02-13T08:19:47.907Z,11.98
2023-02-13T08:22:52.804Z,29.05
2023-02-13T08:26:01.872Z,14.07
2023-02-13T08:29:07.125Z,10.65
2023-02-13T08:32:12.578Z,15.88
2023-02-13T08:35:17.795Z,9.35
2023-02-13T08:38:22.422Z,7.57
2023-02-13T08:41:27.258Z,16.98
2023-02-13T08:44:32.196Z,8.52
2023-02-13T08:47:38.177Z,11.02
2023-02-13T08:50:42.979Z,13.27
2023-02-13T08:53:47.851Z,12.82
2023-02-13T08:56:52.749Z,10.07
2023-02-13T08:59:57.678Z,9.98
2023-02-13T09:03:03.587Z,10.88
2023-02-13T09:06:08.541Z,11.60
2023-02-13T09:09:13.416Z,8.75
2023-02-13T09:12:18.341Z,10.50
2023-02-13T09:15:23.416Z,7.15
2023-02-13T09:18:28.990Z,12.52
2023-02-13T09:21:33.632Z,12.15
2023-02-13T09:24:38.657Z,9.50
2023-02-13T09:27:43.432Z,15.25
2023-02-13T09:30:49.156Z,12.40
2023-02-13T09:33:53.956Z,12.23
2023-02-13T09:36:58.737Z,10.43
2023-02-13T09:40:04.251Z,9.75
2023-02-13T09:43:32.489Z,13.55
2023-02-13T09:46:41.278Z,11.23
2023-02-13T09:49:58.155Z,10.77
2023-02-13T09:53:04.535Z,10.77
2023-02-13T09:56:25.462Z,6.97
2023-02-13T09:59:46.734Z,16.45
2023-02-13T10:02:57.537Z,14.85
2023-02-13T10:06:11.452Z,21.08
2023-02-13T10:09:54.366Z,19.48
2023-02-13T10:13:16.553Z,10.45
2023-02-13T10:16:51.145Z,14.15
2023-02-13T10:20:18.333Z,14.10
2023-02-13T10:23:28.871Z,15.40
2023-02-13T10:26:46.406Z,9.27
2023-02-13T10:30:36.710Z,11.13
2023-02-13T10:33:53.470Z,21.77
2023-02-13T10:36:58.721Z,11.93
2023-02-13T10:40:06.682Z,13.00
2023-02-13T10:43:17.776Z,11.40
2023-02-13T10:46:56.439Z,10.82
2023-02-13T10:50:20.842Z,14.65
2023-02-13T10:53:56.716Z,16.75
2023-02-13T10:57:37.257Z,11.85
2023-02-13T11:01:14.470Z,11.45
2023-02-13T11:04:20.221Z,14.85
2023-02-13T11:07:27.496Z,9.68
2023-02-13T11:10:32.132Z,17.88
2023-02-13T11:13:36.963Z,9.00
2023-02-13T11:17:03.478Z,11.30
2023-02-13T11:20:38.115Z,14.85
2023-02-13T11:23:50.467Z,18.10
2023-02-13T11:27:08.643Z,17.58
2023-02-13T11:30:33.606Z,11.15
2023-02-13T11:33:38.607Z,50.92
2023-02-13T11:36:43.881Z,20.08
2023-02-13T11:39:52.392Z,16.77
2023-02-13T11:42:57.119Z,12.93
2023-02-13T11:46:03.917Z,14.02
2023-02-13T11:49:19.169Z,13.60
2023-02-13T11:52:35.483Z,16.88
2023-02-13T11:55:42.688Z,14.35
2023-02-13T11:59:02.181Z,13.25
2023-02-13T12:02:23.195Z,21.92
2023-02-13T12:05:28.903Z,18.25
2023-02-13T12:08:36.483Z,12.48
2023-02-13T12:11:51.731Z,13.88
2023-02-13T12:14:57.446Z,15.40
2023-02-13T12:18:29.220Z,19.35
2023-02-13T12:22:08.216Z,16.38
2023-02-13T12:25:26.986Z,14.00
2023-02-13T12:28:51.463Z,18.63
2023-02-13T12:32:15.194Z,13.80
2023-02-13T12:35:45.246Z,13.77
2023-02-13T12:39:10.140Z,15.35
2023-02-13T12:42:38.958Z,16.35
2023-02-13T12:45:57.568Z,17.95
2023-02-13T12:49:11.957Z,11.02
2023-02-13T12:52:22.783Z,15.57
2023-02-13T12:55:46.029Z,14.43
2023-02-13T12:59:40.709Z,11.88
2023-02-13T13:03:10.197Z,13.35
2023-02-13T13:06:46.066Z,14.00
2023-02-13T13:10:30.733Z,13.95
2023-02-13T13:14:10.947Z,12.32
2023-02-13T13:17:46.216Z,18.10
2023-02-13T13:21:25.520Z,14.60
2023-02-13T13:25:00.307Z,10.27
2023-02-13T13:28:22.615Z,15.05
2023-02-13T13:31:28.667Z,18.58
2023-02-13T13:34:35.563Z,15.85
2023-02-13T13:38:06.870Z,10.35
2023-02-13T13:41:55.118Z,10.48
2023-02-13T13:45:08.454Z,10.13
2023-02-13T13:48:29.191Z,14.45
2023-02-13T13:51:34.542Z,35.97
2023-02-13T13:54:39.391Z,10.07
2023-02-13T13:57:59.665Z,11.25
2023-02-13T14:01:30.896Z,9.52
2023-02-13T14:04:35.560Z,11.30
2023-02-13T14:07:42.202Z,9.93
2023-02-13T14:10:49.683Z,17.00
2023-02-13T14:13:54.622Z,7.70
2023-02-13T14:17:04.041Z,8.40
2023-02-13T14:20:36.552Z,12.07
2023-02-13T14:23:50.537Z,12.60
2023-02-13T14:27:05.116Z,20.17
2023-02-13T14:30:34.324Z,21.52
2023-02-13T14:33:38.973Z,11.18
2023-02-13T14:37:02.531Z,23.13
2023-02-13T14:40:31.689Z,16.42
2023-02-13T14:43:42.316Z,12.95
2023-02-13T14:46:49.105Z,12.18
2023-02-13T14:49:55.788Z,12.15
2023-02-13T14:53:03.510Z,13.70
2023-02-13T14:56:13.396Z,16.95
2023-02-13T14:59:32.703Z,16.50
2023-02-13T15:02:44.602Z,13.32
2023-02-13T15:05:55.230Z,11.65
2023-02-13T15:09:05.264Z,12.82
2023-02-13T15:12:33.150Z,14.63
2023-02-13T15:15:38.181Z,13.05
2023-02-13T15:18:47.925Z,18.77
2023-02-13T15:21:57.341Z,15.27
2023-02-13T15:25:02.538Z,18.73
2023-02-13T15:28:09.047Z,14.80
2023-02-13T15:31:24.662Z,15.27
2023-02-13T15:34:34.293Z,19.38
2023-02-13T15:37:39.122Z,20.13
2023-02-13T15:40:44.837Z,17.33
2023-02-13T15:43:56.116Z,14.95
2023-02-13T15:47:14.381Z,20.83
2023-02-13T15:50:23.506Z,11.80
2023-02-13T15:53:29.883Z,14.85
2023-02-13T15:56:35.226Z,13.90
2023-02-13T15:59:40.560Z,15.38
2023-02-13T16:02:47.815Z,16.48
2023-02-13T16:05:53.392Z,18.48
2023-02-13T16:09:00.315Z,18.73
2023-02-13T16:12:27.422Z,18.65
2023-02-13T16:15:35.873Z,21.98
2023-02-13T16:18:41.043Z,18.65
2023-02-13T16:21:48.431Z,19.88
2023-02-13T16:25:04.329Z,20.05
2023-02-13T16:28:25.791Z,21.35
2023-02-13T16:31:31.265Z,23.95
2023-02-13T16:34:37.022Z,19.70
2023-02-13T16:37:51.617Z,17.48
2023-02-13T16:41:07.888Z,21.38
2023-02-13T16:44:30.607Z,23.52
2023-02-13T16:47:35.770Z,25.17
2023-02-13T16:50:40.626Z,33.03
2023-02-13T16:53:45.701Z,43.17
2023-02-13T16:57:00.189Z,30.75
2023-02-13T17:00:25.568Z,33.78
2023-02-13T17:03:33.858Z,50.58
2023-02-13T17:06:39.116Z,43.90
2023-02-13T17:09:43.898Z,70.15
2023-02-13T17:12:50.779Z,27.15
2023-02-13T17:15:55.942Z,26.48
2023-02-13T17:19:01.067Z,28.50
2023-02-13T17:22:06.408Z,31.05
2023-02-13T17:25:30.318Z,21.00
2023-02-13T17:28:35.210Z,29.33
2023-02-13T17:31:42.407Z,22.42
2023-02-13T17:34:47.487Z,15.57
2023-02-13T17:37:52.665Z,17.00
2023-02-13T17:40:57.844Z,16.92
2023-02-13T17:44:03.177Z,13.75
2023-02-13T17:47:08.230Z,20.77
2023-02-13T17:50:14.007Z,15.70
2023-02-13T17:53:21.581Z,21.42
2023-02-13T17:56:26.485Z,18.30
2023-02-13T17:59:31.741Z,18.98
2023-02-13T18:02:36.656Z,17.40
2023-02-13T18:05:41.706Z,18.63
2023-02-13T18:08:46.810Z,18.23
2023-02-13T18:12:04.594Z,77.30
2023-02-13T18:15:11.318Z,46.28
2023-02-13T18:18:16.855Z,30.05
2023-02-13T18:21:23.001Z,36.20
2023-02-13T18:24:32.380Z,51.35
2023-02-13T18:27:37.397Z,15.57
2023-02-13T18:30:43.084Z,14.95
2023-02-13T18:33:48.188Z,19.00
2023-02-13T18:36:53.040Z,20.98
2023-02-13T18:39:57.826Z,17.88
2023-02-13T18:43:02.573Z,21.70
2023-02-13T18:46:07.610Z,20.77
2023-02-13T18:49:12.590Z,17.30
2023-02-13T18:52:17.547Z,20.40
2023-02-13T18:55:22.659Z,18.40
2023-02-13T18:58:27.316Z,21.17
2023-02-13T19:01:32.210Z,26.17
2023-02-13T19:04:38.217Z,20.65
2023-02-13T19:07:43.485Z,20.15
2023-02-13T19:10:48.443Z,32.50
2023-02-13T19:14:00.509Z,32.95
2023-02-13T19:17:08.092Z,38.25
2023-02-13T19:20:14.989Z,27.83
2023-02-13T19:23:21.499Z,34.28
2023-02-13T19:26:27.636Z,38.00
2023-02-13T19:29:32.547Z,45.13
2023-02-13T19:32:37.458Z,45.63
2023-02-13T19:35:42.251Z,30.65
2023-02-13T19:38:47.958Z,48.10
2023-02-13T19:41:52.880Z,46.22
2023-02-13T19:44:57.718Z,38.60
2023-02-13T19:48:02.812Z,37.22
2023-02-13T19:51:12.167Z,37.88
2023-02-13T19:54:17.123Z,38.15
2023-02-13T19:57:22.727Z,29.15
2023-02-13T20:00:27.394Z,26.52
2023-02-13T20:03:32.517Z,25.35
2023-02-13T20:06:37.901Z,33.42
2023-02-13T20:09:43.375Z,44.00
2023-02-13T20:12:53.676Z,33.40
2023-02-13T20:15:58.848Z,27.52
2023-02-13T20:19:08.949Z,38.08
2023-02-13T20:22:16.538Z,33.58
2023-02-13T20:25:22.954Z,34.00
2023-02-13T20:28:28.200Z,40.13
2023-02-13T20:31:34.462Z,36.78
2023-02-13T20:34:58.160Z,33.63
2023-02-13T20:38:04.906Z,35.10
2023-02-13T20:41:11.513Z,35.55
2023-02-13T20:44:20.390Z,36.67
2023-02-13T20:47:25.357Z,31.60
2023-02-13T20:50:30.363Z,30.35
2023-02-13T20:53:35.517Z,38.45
2023-02-13T20:56:40.309Z,31.58
2023-02-13T20:59:45.139Z,30.75
2023-02-13T21:02:49.941Z,36.67
2023-02-13T21:05:54.841Z,35.65
2023-02-13T21:09:00.576Z,45.53
2023-02-13T21:12:05.774Z,42.75
2023-02-13T21:15:10.526Z,35.58
2023-02-13T21:18:15.655Z,32.53
2023-02-13T21:21:23.642Z,34.65
2023-02-13T21:24:28.601Z,37.03
2023-02-13T21:27:34.420Z,37.88
2023-02-13T21:30:39.482Z,36.30
2023-02-13T21:33:44.675Z,29.25
2023-02-13T21:36:49.558Z,38.65
2023-02-13T21:39:54.446Z,40.25
2023-02-13T21:42:59.256Z,40.47
2023-02-13T21:46:13.877Z,39.15
2023-02-13T21:49:19.276Z,41.55
2023-02-13T21:52:24.959Z,48.13
2023-02-13T21:55:30.026Z,32.75
2023-02-13T21:58:36.488Z,39.20
2023-02-13T22:01:41.359Z,35.85
2023-02-13T22:04:46.410Z,41.45
2023-02-13T22:08:09.922Z,37.25
2023-02-13T22:11:14.838Z,34.13
2023-02-13T22:14:19.633Z,40.88
2023-02-13T22:17:24.297Z,36.05
2023-02-13T22:20:29.134Z,35.45
2023-02-13T22:23:36.659Z,36.45
2023-02-13T22:26:45.195Z,40.25
2023-02-13T22:29:51.338Z,38.88
2023-02-13T22:32:56.982Z,36.83
2023-02-13T22:36:02.124Z,35.53
2023-02-13T22:39:09.594Z,41.85
2023-02-13T22:42:14.586Z,34.92
2023-02-13T22:45:19.403Z,33.85
2023-02-13T22:48:24.002Z,39.17
2023-02-13T22:51:34.614Z,37.67
2023-02-13T22:54:39.643Z,37.65
2023-02-13T22:57:46.830Z,37.75
2023-02-13T23:00:51.744Z,39.83
2023-02-13T23:03:57.437Z,39.97
2023-02-13T23:07:02.419Z,39.42
2023-02-13T23:10:07.980Z,43.67
2023-02-13T23:13:12.975Z,41.30
2023-02-13T23:16:17.957Z,38.20
2023-02-13T23:19:22.633Z,36.92
2023-02-13T23:22:27.487Z,38.22
2023-02-13T23:25:32.235Z,34.08
2023-02-13T23:28:37.198Z,36.90
2023-02-13T23:31:42.281Z,37.00
2023-02-13T23:34:47.528Z,36.92
2023-02-13T23:37:53.564Z,28.17
2023-02-13T23:41:07.549Z,38.83
2023-02-13T23:44:12.521Z,33.28
2023-02-13T23:47:17.359Z,34.95
2023-02-13T23:50:22.139Z,41.28
2023-02-13T23:53:27.070Z,37.90
2023-02-13T23:56:32.354Z,30.52
2023-02-13T23:59:38.547Z,34.40
